Time;durP1;ratioP1;P1;durP2;ratioP2;P2;SDS_P1;SDS_P2;PMS_P1;PMS_P2;Temp;Humidity;BMP_temperature;BMP_pressure;BME280_temperature;BME280_humidity;BME280_pressure;Samples;Min_cycle;Max_cycle;Signal;HPM_P1;HPM_P2
2022/12/11 00:00:04;;;;;;;32.50;18.73;;;-1.00;90.40;;;-1.45;83.05;97207.47;5092727;28;20448;-74
2022/12/11 00:02:31;;;;;;;30.30;19.10;;;-1.00;90.70;;;-1.71;83.87;97209.16;5102405;27;20472;-74
2022/12/11 00:04:59;;;;;;;30.73;20.03;;;-1.10;90.30;;;-1.84;82.88;97145.19;5114277;28;20506;-75
2022/12/11 00:07:26;;;;;;;31.43;19.30;;;-1.00;90.70;;;-1.45;83.07;97197.66;5094072;28;20437;-75
2022/12/11 00:09:55;;;;;;;29.27;18.60;;;-1.00;90.50;;;-1.69;83.34;97192.28;5074401;28;20832;-74
2022/12/11 00:12:22;;;;;;;31.37;19.77;;;-1.00;89.40;;;-1.80;83.39;97169.56;5084666;28;20473;-75
2022/12/11 00:14:49;;;;;;;34.60;18.60;;;-1.10;89.60;;;-1.79;83.38;97157.97;5092164;28;20461;-76
2022/12/11 00:17:16;;;;;;;36.03;19.77;;;-1.10;90.30;;;-1.75;83.69;97178.66;5104582;28;20515;-74
2022/12/11 00:19:43;;;;;;;29.70;19.47;;;-1.00;90.50;;;-1.52;82.85;97206.41;5090924;28;20464;-75
2022/12/11 00:22:11;;;;;;;26.00;18.30;;;-1.00;90.30;;;-1.90;83.96;97193.47;5090565;28;20456;-74
2022/12/11 00:24:38;;;;;;;32.17;20.07;;;-1.10;90.00;;;-1.55;83.42;97207.59;5096678;28;20576;-75
2022/12/11 00:27:06;;;;;;;29.27;19.17;;;-1.10;90.80;;;-1.38;82.88;97205.00;5102540;28;20479;-74
2022/12/11 00:29:34;;;;;;;27.53;19.07;;;-1.00;90.50;;;-1.34;82.51;97209.00;5102378;28;21094;-74
2022/12/11 00:32:01;;;;;;;32.53;19.30;;;-0.90;89.70;;;-1.45;82.41;97213.56;5107681;28;20462;-75
2022/12/11 00:34:29;;;;;;;29.77;18.90;;;-0.90;89.40;;;-1.25;81.65;97208.03;5116441;28;20443;-76
2022/12/11 00:36:57;;;;;;;30.10;18.00;;;-0.80;88.90;;;-1.19;81.54;97218.00;5114237;28;20441;-74
2022/12/11 00:39:25;;;;;;;28.07;18.07;;;-0.80;87.90;;;-1.44;82.52;97222.38;5110537;28;20462;-74
2022/12/11 00:41:52;;;;;;;30.30;18.37;;;-0.90;87.80;;;-1.53;81.98;97183.56;5119873;27;20449;-74
2022/12/11 00:44:20;;;;;;;28.83;18.40;;;-0.90;89.40;;;-1.59;82.73;97227.44;5128861;27;20493;-74
2022/12/11 00:46:48;;;;;;;31.40;18.40;;;-1.00;88.70;;;-1.46;83.16;97214.56;5086110;28;20465;-73
2022/12/11 00:49:15;;;;;;;28.10;18.53;;;-1.00;90.20;;;-1.24;82.15;97222.94;5098572;28;20462;-74
2022/12/11 00:51:43;;;;;;;30.43;18.73;;;-0.80;89.20;;;-1.25;81.65;97226.59;5099244;28;20464;-76
2022/12/11 00:54:10;;;;;;;29.30;18.30;;;-0.80;87.60;;;-1.31;81.51;97225.41;5105017;28;20446;-75
2022/12/11 00:56:37;;;;;;;26.87;18.00;;;-0.80;86.60;;;-1.33;81.41;97222.09;5112255;28;20444;-74
2022/12/11 00:59:04;;;;;;;28.10;18.40;;;-0.80;87.20;;;-1.66;82.24;97218.44;5117564;28;20448;-74
2022/12/11 01:01:33;;;;;;;26.80;18.87;;;-1.00;87.20;;;-1.65;82.88;97228.06;5090019;28;20461;-76
2022/12/11 01:04:00;;;;;;;30.93;19.90;;;-1.10;88.90;;;-1.81;83.68;97234.91;5096761;28;20471;-77
2022/12/11 01:06:28;;;;;;;31.47;20.07;;;-1.20;90.00;;;-1.43;82.64;97237.28;5085997;28;20479;-74
2022/12/11 01:11:38;;;;;;;30.20;18.53;;;-1.00;90.10;;;-2.33;83.95;97174.84;5098825;28;20469;-74
2022/12/11 01:14:06;;;;;;;31.37;18.27;;;-1.20;90.00;;;-1.90;84.75;97238.50;5090683;28;20452;-73
2022/12/11 01:16:35;;;;;;;28.23;18.07;;;-1.30;90.80;;;-1.78;84.84;97247.03;5078134;28;20452;-76
2022/12/11 01:19:02;;;;;;;31.63;20.47;;;-1.30;91.10;;;-1.76;84.53;97243.22;5083826;28;20478;-73
2022/12/11 01:21:30;;;;;;;28.77;18.93;;;-1.20;91.10;;;-1.91;84.74;97197.09;5079112;28;20449;-74
2022/12/11 01:23:57;;;;;;;34.73;20.33;;;-1.20;91.60;;;-1.67;84.06;97222.91;5092085;28;20541;-74
2022/12/11 01:26:25;;;;;;;29.23;19.40;;;-1.10;91.70;;;-1.87;84.40;97241.66;5092404;28;20444;-74
2022/12/11 01:28:52;;;;;;;26.93;17.63;;;-1.20;90.60;;;-1.84;84.54;97240.53;5076826;28;20461;-75
2022/12/11 01:31:22;;;;;;;30.63;18.67;;;-1.20;90.90;;;-2.04;85.37;97235.44;5114974;27;20456;-73
2022/12/11 01:33:54;;;;;;;30.97;18.90;;;-1.30;91.10;;;-1.91;85.34;97220.94;5081811;28;21083;-75
2022/12/11 01:36:23;;;;;;;31.60;20.13;;;-1.30;92.10;;;-1.78;84.91;97233.78;5087373;28;20444;-74
2022/12/11 01:38:52;;;;;;;27.37;18.30;;;-1.20;92.00;;;-2.01;85.93;97235.13;5082006;28;21023;-75
2022/12/11 01:41:19;;;;;;;28.77;19.03;;;-1.40;92.20;;;-1.95;86.30;97240.78;5087424;28;20475;-75
2022/12/11 01:43:59;;;;;;;34.17;20.50;;;-1.40;93.00;;;-1.85;86.50;97239.69;5081224;28;21086;-76
2022/12/11 01:46:26;;;;;;;29.07;18.33;;;-1.30;93.30;;;-2.07;86.62;97241.03;5076050;28;20482;-74
2022/12/11 01:48:56;;;;;;;31.20;19.70;;;-1.40;93.20;;;-2.01;86.47;97240.44;5084298;28;20460;-74
2022/12/11 01:51:24;;;;;;;31.20;19.73;;;-1.40;93.60;;;-2.16;86.59;97236.69;5097003;28;20448;-75
2022/12/11 01:53:56;;;;;;;26.93;19.70;;;-1.40;93.40;;;-2.03;86.59;97247.69;5091748;28;20846;-74
2022/12/11 01:56:24;;;;;;;32.80;19.80;;;-1.40;93.80;;;-2.12;86.53;97235.38;5087538;28;20773;-73
2022/12/11 01:58:58;;;;;;;32.10;20.43;;;-1.50;93.40;;;-2.05;87.00;97227.66;5109221;27;20456;-73
2022/12/11 02:01:31;;;;;;;28.40;19.03;;;-1.50;94.30;;;-1.87;86.09;97244.31;5088561;28;20456;-74
2022/12/11 02:04:01;;;;;;;33.07;20.40;;;-1.40;94.80;;;-1.89;85.96;97248.94;5082084;28;20455;-74
2022/12/11 02:06:33;;;;;;;30.53;19.10;;;-1.40;93.20;;;-2.65;86.29;97148.00;5087804;28;20463;-74
2022/12/11 02:09:01;;;;;;;32.40;20.03;;;-1.50;93.10;;;-2.24;87.21;97252.47;5090695;28;20452;-73
2022/12/11 02:11:40;;;;;;;37.87;19.80;;;-1.60;93.60;;;-2.20;87.40;97232.66;5088658;28;20463;-72
2022/12/11 02:14:19;;;;;;;37.10;20.70;;;-1.60;95.20;;;-2.24;87.94;97252.47;5088617;28;20450;-73
2022/12/11 02:16:52;;;;;;;31.57;19.70;;;-1.60;94.70;;;-2.06;87.33;97247.97;5088094;28;20949;-73
2022/12/11 02:19:44;;;;;;;30.67;18.37;;;-1.60;95.80;;;-2.28;87.52;97228.97;5080216;28;20455;-72
2022/12/11 02:22:18;;;;;;;30.27;19.30;;;-1.50;95.80;;;-2.14;87.23;97253.22;5085792;28;20501;-73
2022/12/11 02:25:02;;;;;;;35.27;20.87;;;-1.60;95.40;;;-2.20;87.73;97259.13;5087848;28;20962;-74
2022/12/11 02:27:36;;;;;;;31.10;19.30;;;-1.60;95.10;;;-2.00;87.73;97242.09;5088294;28;20479;-74
2022/12/11 02:30:08;;;;;;;31.33;20.90;;;-1.50;96.40;;;-1.73;86.57;97256.16;5110691;27;20455;-73
2022/12/11 02:32:40;;;;;;;34.60;20.27;;;-1.30;96.20;;;-1.79;86.50;97248.84;5081548;28;20843;-73
2022/12/11 02:35:15;;;;;;;35.83;20.00;;;-1.30;94.70;;;-1.86;86.48;97231.91;5079071;28;20453;-74
2022/12/11 02:37:47;;;;;;;32.50;20.77;;;-1.20;94.50;;;-1.81;86.63;97253.47;5079231;28;20449;-72
2022/12/11 02:40:20;;;;;;;37.80;20.50;;;-1.30;93.80;;;-1.91;86.69;97252.72;5082833;28;20461;-73
2022/12/11 02:42:50;;;;;;;32.90;19.47;;;-1.30;94.00;;;-1.82;87.14;97240.34;5090599;28;20453;-74
2022/12/11 02:45:20;;;;;;;30.03;19.60;;;-1.30;95.00;;;-1.98;87.47;97254.34;5083848;28;20850;-75
2022/12/11 02:47:49;;;;;;;38.17;21.57;;;-1.40;94.50;;;-2.06;88.20;97257.75;5085933;28;20461;-74
2022/12/11 02:50:22;;;;;;;30.50;20.43;;;-1.40;94.90;;;-1.97;87.44;97240.97;5093983;28;20447;-73
2022/12/11 02:52:52;;;;;;;36.63;20.07;;;-1.40;95.80;;;-1.72;86.32;97236.63;5100762;28;20524;-72
2022/12/11 02:55:20;;;;;;;35.00;21.20;;;-1.30;95.00;;;-1.72;85.93;97239.28;5103684;28;20458;-72
2022/12/11 02:57:51;;;;;;;29.97;19.77;;;-1.20;94.40;;;-2.04;85.77;97186.94;5096063;28;20455;-74
2022/12/11 03:00:20;;;;;;;37.27;20.77;;;-1.20;93.10;;;-1.90;86.78;97227.91;5095764;28;20454;-72
2022/12/11 03:02:48;;;;;;;29.47;20.20;;;-1.30;93.30;;;-1.91;87.39;97242.13;5081918;28;20479;-73
2022/12/11 03:05:15;;;;;;;33.63;20.20;;;-1.40;94.30;;;-2.14;88.29;97219.63;5085141;28;20466;-75
2022/12/11 03:07:45;;;;;;;35.23;19.00;;;-1.40;95.10;;;-1.88;88.28;97244.50;5079128;28;20456;-75
2022/12/11 03:10:17;;;;;;;32.90;22.30;;;-1.40;96.60;;;-1.98;86.64;97181.00;5080884;28;20448;-74
2022/12/11 03:12:50;;;;;;;33.30;22.90;;;-1.20;96.40;;;-1.77;87.20;97246.03;5090050;28;20945;-74
2022/12/11 03:15:23;;;;;;;29.70;19.53;;;-1.30;95.50;;;-2.02;85.55;97162.00;5086679;28;20449;-73
2022/12/11 03:18:02;;;;;;;31.70;20.00;;;-1.10;94.80;;;-1.77;86.78;97251.34;5087608;28;20524;-73
2022/12/11 03:20:38;;;;;;;36.17;20.57;;;-1.20;93.60;;;-1.65;86.99;97246.59;5087542;28;20448;-74
2022/12/11 03:23:19;;;;;;;33.60;20.87;;;-1.20;94.90;;;-1.84;87.30;97251.13;5076523;28;20445;-74
2022/12/11 03:25:54;;;;;;;35.27;22.23;;;-1.30;95.00;;;-1.83;88.18;97250.13;5083164;28;20987;-74
2022/12/11 03:28:29;;;;;;;33.43;21.20;;;-1.30;96.10;;;-1.84;87.99;97245.84;5081105;28;20509;-73
2022/12/11 03:31:04;;;;;;;32.17;20.97;;;-1.30;96.30;;;-1.79;87.99;97248.84;5092427;28;20490;-74
2022/12/11 03:33:35;;;;;;;28.97;19.03;;;-1.20;97.20;;;-2.00;88.27;97215.59;5095311;28;20448;-74
2022/12/11 03:36:08;;;;;;;34.20;21.30;;;-1.20;97.00;;;-1.89;88.40;97240.19;5100696;28;20460;-74
2022/12/11 03:38:42;;;;;;;33.93;21.83;;;-1.20;96.80;;;-1.74;87.74;97245.72;5096185;28;20462;-74
2022/12/11 03:41:12;;;;;;;32.40;21.03;;;-1.20;96.80;;;-1.66;86.97;97218.44;5109664;28;20483;-75
2022/12/11 03:43:41;;;;;;;30.67;20.27;;;-1.10;97.60;;;-2.08;87.31;97175.00;5111464;28;20472;-72
2022/12/11 03:46:12;;;;;;;30.07;19.17;;;-1.10;96.20;;;-1.62;87.05;97239.19;5096460;28;20464;-74
2022/12/11 03:48:42;;;;;;;30.43;20.10;;;-1.20;96.10;;;-1.73;87.19;97242.09;5098478;28;20465;-74
2022/12/11 03:51:10;;;;;;;30.43;20.20;;;-1.20;95.30;;;-1.86;87.54;97231.91;5092341;28;20452;-74
2022/12/11 03:53:39;;;;;;;29.47;18.67;;;-1.20;95.30;;;-1.86;87.78;97239.88;5100642;27;20450;-73
2022/12/11 03:56:08;;;;;;;31.20;20.77;;;-1.20;95.50;;;-1.72;87.71;97247.25;5093632;28;20546;-75
2022/12/11 03:58:37;;;;;;;28.73;20.50;;;-1.20;96.00;;;-1.81;87.08;97248.16;5089265;28;20961;-74
2022/12/11 04:01:04;;;;;;;28.13;19.10;;;-1.20;95.20;;;-1.87;86.47;97235.56;5117961;27;20446;-74
2022/12/11 04:03:32;;;;;;;25.10;18.53;;;-1.20;94.60;;;-1.89;87.21;97235.69;5078384;28;20440;-73
2022/12/11 04:06:00;;;;;;;28.50;18.60;;;-1.20;94.40;;;-1.83;86.75;97225.47;5068771;28;20469;-73
2022/12/11 04:08:27;;;;;;;30.43;19.87;;;-1.20;94.50;;;-1.67;86.87;97248.56;5092207;28;20445;-73
2022/12/11 04:13:36;;;;;;;25.63;18.00;;;-1.20;94.40;;;-1.74;86.56;97246.56;5082979;28;20516;-73
2022/12/11 04:16:03;;;;;;;27.17;18.57;;;-1.20;93.70;;;-1.73;86.03;97229.69;5078444;28;20458;-73
2022/12/11 04:24:15;;;;;;;26.00;17.67;;;-1.00;93.40;;;-1.74;85.82;97196.25;5118953;27;21034;-74
2022/12/11 04:26:42;;;;;;;31.33;20.57;;;-1.00;92.80;;;-1.68;85.52;97228.38;5082167;28;20476;-73
2022/12/11 04:29:10;;;;;;;32.37;19.70;;;-1.00;92.20;;;-1.55;86.31;97243.84;5085406;28;20471;-72
2022/12/11 04:31:37;;;;;;;31.73;19.33;;;-1.10;92.90;;;-1.57;85.74;97230.75;5091265;28;20457;-72
2022/12/11 04:34:06;;;;;;;27.20;19.43;;;-1.00;92.80;;;-1.55;85.18;97223.47;5088996;28;20465;-73
2022/12/11 04:36:33;;;;;;;29.93;21.07;;;-1.00;92.60;;;-1.71;85.48;97230.34;5095173;28;20925;-73
2022/12/11 04:39:00;;;;;;;30.70;19.70;;;-1.00;91.70;;;-3.15;84.64;96980.22;5084128;28;20442;-74
2022/12/11 04:41:28;;;;;;;30.10;18.57;;;-1.00;91.90;;;-1.53;84.58;97224.16;5096936;28;20453;-74
2022/12/11 04:43:56;;;;;;;31.20;20.27;;;-1.00;91.80;;;-1.95;84.60;97158.69;5095948;28;20483;-74
2022/12/11 04:46:24;;;;;;;29.03;19.27;;;-1.00;91.20;;;-1.90;84.24;97198.78;5075010;28;20467;-75
2022/12/11 04:48:53;;;;;;;28.60;18.23;;;-1.00;90.70;;;-1.71;84.66;97229.50;5089788;28;20500;-75
2022/12/11 04:51:22;;;;;;;30.27;18.57;;;-1.00;90.80;;;-1.68;84.25;97233.66;5085266;28;20986;-75
2022/12/11 04:53:49;;;;;;;29.10;18.60;;;-1.10;90.70;;;-1.90;84.71;97230.53;5088178;28;20470;-75
2022/12/11 04:56:17;;;;;;;31.30;18.73;;;-1.10;90.30;;;-1.72;84.05;97233.16;5088906;28;20454;-72
2022/12/11 04:58:44;;;;;;;28.93;18.97;;;-1.10;90.10;;;-1.88;84.28;97231.25;5079696;28;20541;-73
2022/12/11 05:01:14;;;;;;;31.03;19.03;;;-1.10;90.10;;;-1.98;84.38;97211.97;5079586;28;20560;-73
2022/12/11 05:03:42;;;;;;;30.27;19.03;;;-1.20;90.30;;;-1.93;84.85;97236.16;5079288;28;20452;-74
2022/12/11 05:06:11;;;;;;;29.70;19.70;;;-1.20;90.60;;;-2.01;85.30;97200.72;5084048;28;20529;-73
2022/12/11 05:08:42;;;;;;;34.37;20.30;;;-1.20;90.80;;;-1.95;85.32;97224.91;5080137;28;20462;-73
2022/12/11 05:11:12;;;;;;;31.30;21.00;;;-1.20;90.90;;;-2.02;85.06;97196.41;5082694;28;20444;-73
2022/12/11 05:13:39;;;;;;;36.43;21.23;;;-1.20;91.10;;;-1.85;84.69;97228.28;5094080;28;20461;-74
2022/12/11 05:16:09;;;;;;;30.20;19.57;;;-1.20;90.80;;;-1.90;84.66;97209.34;5082411;28;20491;-74
2022/12/11 05:18:38;;;;;;;33.40;21.67;;;-1.20;90.90;;;-1.97;84.38;97221.56;5093729;28;20970;-72
2022/12/11 05:21:08;;;;;;;32.23;18.70;;;-1.30;90.90;;;-2.15;85.34;97223.25;5076278;28;20962;-73
2022/12/11 05:23:36;;;;;;;32.60;19.13;;;-1.30;91.20;;;-2.13;85.51;97228.41;5077253;28;20456;-73
2022/12/11 05:26:08;;;;;;;35.00;20.97;;;-1.40;91.20;;;-2.24;85.30;97210.97;5107199;27;20468;-73
2022/12/11 05:28:38;;;;;;;33.93;19.53;;;-1.50;91.20;;;-2.03;85.51;97228.31;5079663;28;20494;-73
2022/12/11 05:31:09;;;;;;;35.27;21.60;;;-1.50;91.70;;;-2.29;85.35;97219.38;5071813;28;20444;-73
2022/12/11 05:33:36;;;;;;;35.80;21.00;;;-1.50;91.50;;;-2.49;85.67;97194.06;5084634;28;20453;-74
2022/12/11 05:36:04;;;;;;;36.73;20.70;;;-1.50;91.70;;;-2.16;85.64;97220.78;5072630;28;20515;-74
2022/12/11 05:38:32;;;;;;;31.30;19.73;;;-1.50;91.80;;;-2.16;85.21;97207.56;5091771;28;20459;-73
2022/12/11 05:41:01;;;;;;;31.53;20.23;;;-1.60;92.00;;;-2.30;85.30;97199.19;5078892;28;20561;-74
2022/12/11 05:43:33;;;;;;;33.00;21.30;;;-1.60;92.00;;;-2.20;85.65;97206.19;5104980;28;20459;-74
2022/12/11 05:46:06;;;;;;;33.37;21.17;;;-1.60;92.00;;;-2.36;86.17;97210.38;5114098;28;20460;-73
2022/12/11 05:48:34;;;;;;;34.63;21.40;;;-1.70;92.00;;;-2.42;86.51;97216.28;5090640;28;20439;-76
2022/12/11 05:51:02;;;;;;;32.50;19.93;;;-1.80;92.30;;;-2.36;85.90;97207.72;5103554;27;20453;-75
2022/12/11 05:53:30;;;;;;;32.70;20.73;;;-1.80;93.00;;;-3.02;86.04;97114.63;5083290;28;20499;-74
2022/12/11 05:56:02;;;;;;;38.83;22.00;;;-1.90;93.00;;;-2.41;86.74;97204.72;5097366;28;20451;-72
2022/12/11 05:58:31;;;;;;;40.37;22.97;;;-1.80;93.60;;;-2.53;86.97;97209.41;5101541;28;20461;-73
2022/12/11 06:00:59;;;;;;;31.43;20.60;;;-1.90;93.70;;;-2.44;86.79;97203.19;5087205;28;20480;-74
2022/12/11 06:03:26;;;;;;;34.73;22.03;;;-1.80;93.60;;;-2.47;86.66;97210.63;5083691;28;20936;-74
2022/12/11 06:05:53;;;;;;;31.47;20.73;;;-1.90;93.40;;;-2.36;85.82;97205.06;5080177;28;20526;-73
2022/12/11 06:08:20;;;;;;;33.57;20.30;;;-1.90;94.00;;;-2.55;85.84;97200.81;5098367;28;20468;-73
2022/12/11 06:10:49;;;;;;;32.27;20.80;;;-1.90;93.60;;;-2.49;86.41;97209.94;5095611;28;20487;-71
2022/12/11 06:13:17;;;;;;;31.43;21.17;;;-1.90;93.50;;;-2.60;86.36;97209.19;5097593;28;20477;-72
2022/12/11 06:15:45;;;;;;;33.73;20.43;;;-2.00;93.10;;;-2.73;86.34;97177.00;5101900;28;20457;-72
2022/12/11 06:18:13;;;;;;;33.87;20.37;;;-2.00;93.70;;;-2.54;86.31;97206.91;5108917;28;20443;-72
2022/12/11 06:20:40;;;;;;;31.60;19.70;;;-2.00;93.30;;;-2.66;86.24;97208.97;5103105;28;20456;-72
2022/12/11 06:23:07;;;;;;;34.80;20.63;;;-2.00;93.40;;;-2.64;86.36;97191.97;5105636;28;20881;-72
2022/12/11 06:25:35;;;;;;;29.23;19.97;;;-2.10;93.70;;;-2.49;86.15;97209.94;5104826;28;20880;-72
2022/12/11 06:28:02;;;;;;;31.13;21.00;;;-2.10;94.30;;;-2.62;85.98;97212.97;5099050;28;20459;-72
2022/12/11 06:30:29;;;;;;;34.13;21.07;;;-2.20;94.10;;;-2.78;86.49;97200.44;5098106;28;20445;-77
2022/12/11 06:32:58;;;;;;;42.33;22.30;;;-2.20;94.20;;;-2.83;86.68;97207.97;5095625;28;20463;-75
2022/12/11 06:35:26;;;;;;;34.00;19.43;;;-2.30;94.50;;;-2.95;87.12;97208.22;5084546;28;20466;-69
2022/12/11 06:37:53;;;;;;;36.70;21.20;;;-2.40;94.60;;;-2.92;86.99;97199.97;5094312;28;20458;-69
2022/12/11 06:40:20;;;;;;;30.70;19.60;;;-2.30;95.40;;;-2.61;85.46;97202.25;5077615;28;20479;-67
2022/12/11 06:42:47;;;;;;;30.57;19.43;;;-2.20;94.50;;;-2.65;85.03;97200.03;5089926;28;20497;-69
2022/12/11 06:45:15;;;;;;;35.10;20.17;;;-2.20;93.20;;;-2.77;84.58;97188.88;5074272;28;20462;-69
2022/12/11 06:47:42;;;;;;;28.20;17.97;;;-2.30;92.40;;;-2.65;84.76;97206.19;5070682;28;20452;-68
2022/12/11 06:50:11;;;;;;;28.27;18.77;;;-2.30;92.80;;;-2.72;84.12;97205.09;5075069;28;20536;-69
2022/12/11 06:52:38;;;;;;;27.00;17.37;;;-2.20;92.00;;;-2.81;84.30;97200.72;5074795;28;20456;-67
2022/12/11 06:55:07;;;;;;;26.90;17.40;;;-2.30;91.10;;;-2.79;84.24;97196.94;5077750;28;20778;-75
2022/12/11 06:57:34;;;;;;;27.70;18.13;;;-2.30;91.10;;;-2.77;83.84;97207.38;5089869;28;20472;-67
2022/12/11 07:00:01;;;;;;;26.00;15.40;;;-2.30;91.10;;;-2.72;83.47;97213.03;5077386;28;20562;-69
2022/12/11 07:02:28;;;;;;;28.77;16.90;;;-2.20;90.80;;;-2.72;83.63;97207.75;5069654;28;20460;-69
2022/12/11 07:04:55;;;;;;;25.63;15.53;;;-2.20;90.10;;;-2.72;83.14;97216.53;5090366;28;20453;-68
2022/12/11 07:07:24;;;;;;;29.57;16.80;;;-2.10;89.40;;;-2.79;83.63;97217.28;5073924;28;20990;-68
2022/12/11 07:09:52;;;;;;;26.73;16.47;;;-2.10;88.40;;;-2.75;83.29;97210.72;5076655;28;20468;-68
2022/12/11 07:12:19;;;;;;;22.63;16.30;;;-2.10;88.10;;;-2.66;83.25;97219.53;5088894;28;20832;-68
2022/12/11 07:14:46;;;;;;;22.67;16.17;;;-2.00;88.00;;;-2.61;82.68;97218.13;5070721;28;20462;-67
2022/12/11 07:17:13;;;;;;;23.00;16.10;;;-1.90;87.40;;;-2.54;82.48;97218.34;5072187;28;20709;-70
2022/12/11 07:19:40;;;;;;;21.80;16.07;;;-1.90;86.30;;;-2.48;82.06;97214.25;5078292;28;20447;-67
2022/12/11 07:22:07;;;;;;;20.70;14.23;;;-1.70;85.60;;;-2.36;82.08;97213.00;5077472;28;20466;-69
2022/12/11 07:24:36;;;;;;;24.23;16.70;;;-1.70;85.00;;;-2.49;81.73;97200.19;5069018;28;20461;-69
2022/12/11 07:27:04;;;;;;;23.10;15.53;;;-1.60;84.20;;;-2.19;80.79;97213.97;5079871;28;20481;-68
2022/12/11 07:29:32;;;;;;;24.23;15.63;;;-1.50;83.80;;;-2.20;80.62;97220.25;5076593;28;20462;-67
2022/12/11 07:31:59;;;;;;;25.40;15.83;;;-1.50;83.00;;;-2.32;81.30;97221.47;5069894;28;20468;-68
2022/12/11 07:34:27;;;;;;;21.73;15.70;;;-1.50;82.80;;;-1.95;82.73;97222.25;5070304;28;20467;-68
2022/12/11 07:36:54;;;;;;;23.00;15.67;;;-1.40;86.70;;;-2.00;80.33;97205.03;5080091;28;20454;-67
2022/12/11 07:39:21;;;;;;;27.37;17.23;;;-1.30;83.70;;;-2.11;79.96;97222.97;5070147;28;21041;-67
2022/12/11 07:41:50;;;;;;;23.43;15.40;;;-1.40;82.50;;;-2.22;79.80;97234.63;5076405;28;20466;-70
2022/12/11 07:44:17;;;;;;;20.13;14.20;;;-1.40;81.10;;;-2.05;79.86;97238.22;5073739;28;20455;-68
2022/12/11 07:46:44;;;;;;;25.40;15.70;;;-1.40;81.80;;;-2.06;78.68;97226.00;5076625;28;20472;-68
2022/12/11 07:49:11;;;;;;;21.23;14.63;;;-1.30;80.50;;;-2.21;78.60;97225.69;5070206;28;20444;-68
2022/12/11 07:51:40;;;;;;;22.47;15.93;;;-1.40;80.00;;;-2.63;79.13;97159.25;5079110;28;20512;-68
2022/12/11 07:54:10;;;;;;;25.47;17.60;;;-1.40;80.60;;;-2.14;78.34;97242.63;5068173;28;20532;-68
2022/12/11 07:56:38;;;;;;;24.53;17.20;;;-1.50;79.70;;;-2.18;78.37;97241.28;5078777;28;20553;-75
2022/12/11 07:59:07;;;;;;;25.50;16.00;;;-1.50;79.40;;;-2.04;78.39;97246.03;5075782;28;20515;-72
2022/12/11 08:01:36;;;;;;;25.43;17.60;;;-1.40;79.90;;;-2.10;77.37;97222.81;5071776;28;20469;-69
2022/12/11 08:04:05;;;;;;;25.60;17.47;;;-1.40;79.50;;;-2.09;78.46;97236.88;5079385;28;20487;-70
2022/12/11 08:06:34;;;;;;;26.43;16.73;;;-1.40;79.40;;;-2.38;78.44;97201.75;5069963;28;20480;-67
2022/12/11 08:09:04;;;;;;;26.97;19.50;;;-1.50;79.20;;;-2.45;78.46;97164.50;5083574;28;20454;-69
2022/12/11 08:11:32;;;;;;;24.03;16.53;;;-1.50;79.80;;;-1.87;77.83;97230.25;5107327;27;20450;-67
2022/12/11 08:14:01;;;;;;;28.03;17.57;;;-1.30;79.80;;;-1.84;77.63;97214.03;5077667;28;20515;-68
2022/12/11 08:16:29;;;;;;;24.10;16.30;;;-1.20;79.70;;;-1.66;77.19;97232.53;5080582;28;20466;-68
2022/12/11 08:18:58;;;;;;;24.50;16.97;;;-1.10;79.30;;;-1.65;76.79;97228.06;5096912;28;20460;-67
2022/12/11 08:21:28;;;;;;;21.37;16.43;;;-1.10;79.10;;;-1.71;75.91;97238.31;5099374;28;20572;-68
2022/12/11 08:23:56;;;;;;;21.80;15.63;;;-1.10;78.20;;;-1.55;75.71;97243.84;5082075;28;20455;-69
2022/12/11 08:26:26;;;;;;;23.27;16.80;;;-1.00;78.00;;;-1.72;75.64;97234.00;5084568;28;20489;-66
2022/12/11 08:28:54;;;;;;;25.50;16.60;;;-1.10;77.30;;;-1.67;75.54;97230.84;5082331;28;20947;-68
2022/12/11 08:31:23;;;;;;;22.33;16.30;;;-1.10;77.50;;;-1.58;75.50;97227.28;5073813;28;20452;-66
2022/12/11 08:33:52;;;;;;;21.70;16.20;;;-1.10;77.40;;;-2.15;74.98;97145.69;5094475;28;20455;-69
2022/12/11 08:36:22;;;;;;;24.47;16.07;;;-1.00;77.10;;;-1.44;75.96;97236.47;5099551;28;20544;-70
2022/12/11 08:38:50;;;;;;;22.33;16.53;;;-0.90;77.80;;;-1.50;74.77;97246.88;5084439;28;20457;-69
2022/12/11 08:41:20;;;;;;;24.20;15.43;;;-0.80;77.30;;;-1.55;76.07;97244.69;5071986;28;21209;-68
2022/12/11 08:43:47;;;;;;;23.93;15.70;;;-0.90;77.50;;;-1.61;75.66;97242.63;5107289;27;20447;-69
2022/12/11 08:46:15;;;;;;;18.47;14.07;;;-1.00;77.20;;;-1.64;75.49;97229.72;5075514;28;20467;-70
2022/12/11 08:48:44;;;;;;;22.03;14.90;;;-1.00;77.00;;;-2.11;75.54;97160.25;5069446;28;20460;-70
2022/12/11 08:51:14;;;;;;;21.67;14.47;;;-1.00;76.90;;;-1.60;75.39;97239.84;5081281;28;20529;-70
2022/12/11 08:53:42;;;;;;;24.57;16.07;;;-1.00;76.90;;;-1.64;75.49;97242.97;5082285;28;20453;-70
2022/12/11 08:56:12;;;;;;;33.60;18.23;;;-0.90;76.80;;;-1.44;75.61;97249.72;5079395;28;20480;-70
2022/12/11 08:58:39;;;;;;;25.57;16.93;;;-0.90;77.00;;;-1.33;74.79;97240.66;5078534;28;20473;-71
2022/12/11 09:01:08;;;;;;;22.60;15.93;;;-0.80;76.90;;;-1.33;74.17;97229.19;5085051;28;20507;-73
2022/12/11 09:03:37;;;;;;;21.50;15.23;;;-0.70;76.30;;;-1.26;73.63;97242.66;5079470;28;20461;-72
2022/12/11 09:06:06;;;;;;;22.83;16.10;;;-0.60;76.10;;;-1.33;74.00;97226.56;5077275;28;20547;-71
2022/12/11 09:08:35;;;;;;;20.73;15.90;;;-0.60;75.90;;;-1.03;73.44;97235.78;5077905;28;20456;-71
2022/12/11 09:11:04;;;;;;;23.47;15.17;;;-0.50;76.00;;;-0.94;72.78;97244.59;5082000;28;20491;-73
2022/12/11 09:13:32;;;;;;;22.50;14.20;;;-0.40;75.80;;;-0.64;72.61;97242.34;5081443;28;20508;-71
2022/12/11 09:15:59;;;;;;;20.77;13.93;;;-0.20;76.10;;;-1.04;72.69;97246.53;5078333;28;20598;-74
2022/12/11 09:18:27;;;;;;;19.80;13.83;;;-0.30;75.00;;;-0.76;71.20;97236.53;5075321;28;20446;-71
2022/12/11 09:21:01;;;;;;;28.97;16.10;;;-0.30;75.00;;;-0.73;71.74;97243.31;5073559;28;20445;-71
2022/12/11 09:23:29;;;;;;;20.47;15.80;;;-0.20;74.90;;;-0.77;71.42;97218.13;5075644;28;20837;-80
2022/12/11 09:25:58;;;;;;;23.67;16.60;;;-0.20;75.00;;;-0.81;72.07;97241.47;5084557;28;20454;-72
2022/12/11 09:28:26;;;;;;;22.63;15.60;;;-0.30;74.80;;;-0.99;72.18;97209.75;5080354;28;20453;-83
2022/12/11 09:30:53;;;;;;;26.23;17.07;;;-0.30;75.00;;;-1.02;72.24;97212.75;5068769;28;20441;-72
2022/12/11 09:33:20;;;;;;;21.60;16.90;;;-0.30;75.20;;;-0.83;72.63;97242.63;5073227;28;20509;-71
2022/12/11 09:35:57;;;;;;;21.77;15.90;;;-0.30;75.60;;;-0.77;72.27;97244.63;5091450;28;20921;-70
2022/12/11 09:38:24;;;;;;;26.20;16.30;;;-0.20;75.30;;;-0.74;72.33;97241.66;5072085;28;20516;-69
2022/12/11 09:40:52;;;;;;;22.90;16.40;;;-0.20;75.20;;;-0.91;72.82;97240.78;5071464;28;20458;-69
2022/12/11 09:43:32;;;;;;;22.80;16.17;;;-0.30;75.30;;;-0.72;73.22;97245.81;5078667;28;20462;-69
2022/12/11 09:46:03;;;;;;;23.53;15.73;;;-0.30;75.70;;;-0.59;72.40;97234.72;5071353;28;20918;-69
2022/12/11 09:48:33;;;;;;;25.67;16.60;;;-0.20;75.60;;;-0.64;72.89;97236.19;5077630;28;20497;-69
2022/12/11 09:51:13;;;;;;;27.33;17.97;;;-0.10;75.60;;;-0.67;72.79;97226.75;5086026;28;20451;-70
2022/12/11 09:53:40;;;;;;;22.17;18.10;;;-0.20;75.40;;;-0.73;73.40;97230.06;5083004;28;20513;-68
2022/12/11 09:56:18;;;;;;;27.30;15.50;;;-0.10;75.70;;;-0.68;72.35;97230.41;5089291;28;20498;-68
2022/12/11 09:59:03;;;;;;;22.40;16.10;;;-0.20;75.60;;;-0.82;73.17;97231.03;5087354;28;20490;-70
2022/12/11 10:01:41;;;;;;;20.83;15.00;;;-0.20;75.30;;;-1.17;72.80;97168.28;5108183;27;20941;-69
2022/12/11 10:04:31;;;;;;;21.80;15.27;;;-0.20;75.30;;;-0.87;73.44;97235.00;5075364;28;20473;-70
2022/12/11 10:07:08;;;;;;;29.00;18.70;;;-0.30;75.40;;;-1.12;73.52;97159.84;5089920;28;20493;-70
2022/12/11 10:09:45;;;;;;;23.93;16.07;;;-0.30;75.70;;;-0.89;73.87;97229.03;5080402;28;20954;-69
2022/12/11 10:12:31;;;;;;;22.57;16.40;;;-0.20;76.10;;;-0.57;73.93;97222.13;5084769;28;20528;-70
2022/12/11 10:15:17;;;;;;;22.37;16.33;;;-0.10;76.10;;;-0.34;71.32;97216.16;5084566;28;20469;-68
2022/12/11 10:17:44;;;;;;;21.87;15.40;;;0.20;75.60;;;-0.51;70.82;97211.84;5101858;28;20458;-68
2022/12/11 10:20:22;;;;;;;19.97;13.60;;;0.10;74.20;;;-0.54;71.11;97196.22;5088435;28;20833;-68
2022/12/11 10:22:52;;;;;;;27.60;17.57;;;0.10;74.20;;;-0.33;71.14;97207.22;5091086;28;20446;-70
2022/12/11 10:25:25;;;;;;;20.33;14.10;;;0.10;74.60;;;-0.46;70.64;97212.19;5088708;28;20892;-69